Time;durP1;ratioP1;P1;durP2;ratioP2;P2;SDS_P1;SDS_P2;PMS_P1;PMS_P2;Temp;Humidity;BMP_temperature;BMP_pressure;BME280_temperature;BME280_humidity;BME280_pressure;Samples;Min_cycle;Max_cycle;Signal;HPM_P1;HPM_P2
2021/03/23 00:01:37;;;;;;;2.93;1.43;;;;;;;6.12;59.37;101383.25;6416287;27;20252;-77
2021/03/23 00:04:41;;;;;;;1.53;1.43;;;;;;;6.01;59.63;101386.31;6414838;27;20235;-77
2021/03/23 00:07:46;;;;;;;2.10;1.30;;;;;;;5.89;60.01;101393.13;6415084;27;20187;-77
2021/03/23 00:10:51;;;;;;;2.10;1.17;;;;;;;5.64;59.96;101361.69;6413734;27;20436;-77
2021/03/23 00:13:57;;;;;;;5.53;1.27;;;;;;;5.83;60.04;101399.19;6415222;27;20190;-77
2021/03/23 00:17:00;;;;;;;1.20;1.20;;;;;;;5.50;60.71;101370.50;6415106;27;20228;-77
2021/03/23 00:20:05;;;;;;;1.10;1.10;;;;;;;5.61;61.11;101394.53;6415006;27;20183;-77
2021/03/23 00:23:13;;;;;;;2.93;1.20;;;;;;;5.76;60.31;101402.78;6413466;27;20410;-77
2021/03/23 00:26:18;;;;;;;1.37;1.20;;;;;;;5.46;59.83;101323.16;6414832;27;20191;-77
2021/03/23 00:29:22;;;;;;;3.50;1.40;;;;;;;5.93;59.74;101383.63;6413388;27;20358;-76
2021/03/23 00:32:25;;;;;;;1.30;1.30;;;;;;;5.88;60.26;101386.03;6413222;27;20360;-77
2021/03/23 00:35:30;;;;;;;1.30;1.30;;;;;;;5.84;59.93;101390.06;6414112;27;20246;-76
2021/03/23 00:38:36;;;;;;;5.83;1.73;;;;;;;5.83;59.74;101404.63;6414328;27;20251;-78
2021/03/23 00:41:42;;;;;;;1.60;1.20;;;;;;;5.63;60.87;101414.13;6418422;27;20183;-77
2021/03/23 00:44:46;;;;;;;1.10;1.10;;;;;;;5.69;60.54;101421.59;6415920;27;20585;-76
2021/03/23 00:47:50;;;;;;;1.57;1.47;;;;;;;5.72;60.31;101407.72;6414694;27;20190;-77
2021/03/23 00:50:54;;;;;;;2.53;1.23;;;;;;;5.73;60.38;101409.38;6416719;27;20183;-78
2021/03/23 00:53:57;;;;;;;1.47;1.47;;;;;;;5.80;59.98;101418.53;6415303;27;20187;-77
2021/03/23 00:57:00;;;;;;;1.30;1.30;;;;;;;5.76;59.98;101414.47;6396017;27;20200;-76
2021/03/23 01:00:09;;;;;;;1.63;1.50;;;;;;;5.72;60.18;101390.63;6414992;27;20225;-77
2021/03/23 01:03:24;;;;;;;2.10;1.20;;;;;;;5.60;59.56;101360.34;6413716;27;20243;-76
2021/03/23 01:06:28;;;;;;;1.43;1.30;;;;;;;5.85;59.76;101386.41;6395531;27;20199;-76
2021/03/23 01:09:31;;;;;;;1.83;1.40;;;;;;;5.81;60.47;101390.41;6413656;27;20182;-77
2021/03/23 01:12:35;;;;;;;2.90;1.30;;;;;;;5.76;60.16;101414.47;6412681;27;20471;-76
2021/03/23 01:15:39;;;;;;;1.20;1.20;;;;;;;5.74;60.32;101405.66;6414112;27;20183;-77
2021/03/23 01:18:44;;;;;;;3.80;1.30;;;;;;;5.72;60.60;101410.41;6412526;27;20550;-77
2021/03/23 01:21:47;;;;;;;5.57;1.30;;;;;;;5.63;60.90;101414.13;6414117;27;20183;-77
2021/03/23 01:25:10;;;;;;;3.57;1.30;;;;;;;5.76;60.80;101409.03;6414267;27;20249;-77
2021/03/23 01:28:13;;;;;;;1.10;1.10;;;;;;;5.80;60.09;101410.41;6414237;27;20188;-78
2021/03/23 01:31:17;;;;;;;1.27;1.27;;;;;;;5.73;60.68;101414.78;6413306;27;20430;-77
2021/03/23 01:34:21;;;;;;;1.90;1.20;;;;;;;5.80;60.29;101413.13;6413702;27;20187;-77
2021/03/23 01:37:24;;;;;;;3.57;1.37;;;;;;;5.83;60.52;101420.88;6394315;27;20207;-77
2021/03/23 01:40:29;;;;;;;6.23;1.40;;;;;;;5.66;59.83;101424.63;6414028;27;20331;-79
2021/03/23 01:43:39;;;;;;;1.40;1.30;;;;;;;5.74;60.57;101421.91;6414315;27;20213;-77
2021/03/23 01:46:46;;;;;;;1.20;1.20;;;;;;;5.87;59.77;101408.72;6413646;27;20184;-77
2021/03/23 01:49:49;;;;;;;1.10;1.10;;;;;;;5.71;60.50;101419.53;6416990;27;20183;-77
2021/03/23 01:52:59;;;;;;;3.07;1.00;;;;;;;5.76;60.42;101414.47;6418353;27;20257;-77
2021/03/23 01:56:05;;;;;;;1.27;1.20;;;;;;;5.80;60.29;101410.41;6420085;27;20183;-78
2021/03/23 01:59:10;;;;;;;2.20;1.20;;;;;;;5.84;61.02;101414.44;6419131;27;20183;-77
2021/03/23 02:02:15;;;;;;;1.80;1.10;;;;;;;5.68;61.87;101417.16;6409214;27;20231;-78
2021/03/23 02:05:30;;;;;;;1.50;1.40;;;;;;;5.73;61.25;101398.56;6418169;27;20211;-78
2021/03/23 02:08:38;;;;;;;1.57;1.47;;;;;;;5.86;60.50;101422.41;6417429;27;20236;-77
2021/03/23 02:11:46;;;;;;;2.27;1.47;;;;;;;5.83;61.22;101410.03;6416826;27;20348;-78
2021/03/23 02:14:49;;;;;;;1.17;1.17;;;;;;;5.71;61.11;101381.63;6418933;27;20247;-77
2021/03/23 02:18:11;;;;;;;1.33;1.23;;;;;;;5.84;60.60;101405.47;6417666;27;20189;-76
2021/03/23 02:21:19;;;;;;;2.47;1.30;;;;;;;5.86;61.23;101404.31;6417467;27;20185;-77
2021/03/23 02:24:24;;;;;;;1.27;1.23;;;;;;;5.97;61.09;101395.84;6417315;27;20212;-77
2021/03/23 02:27:29;;;;;;;1.20;1.20;;;;;;;5.89;61.43;101409.38;6416218;27;20401;-77
2021/03/23 02:30:35;;;;;;;1.33;1.30;;;;;;;5.87;61.08;101399.75;6417690;27;20264;-76
2021/03/23 02:33:42;;;;;;;2.83;1.50;;;;;;;5.86;60.83;101415.16;6416114;27;20496;-77
2021/03/23 02:36:48;;;;;;;1.40;1.30;;;;;;;5.62;61.12;101417.88;6415965;27;20437;-77
2021/03/23 02:39:53;;;;;;;2.93;1.30;;;;;;;5.69;62.02;101422.44;6417021;27;20188;-77
2021/03/23 02:42:57;;;;;;;3.60;1.43;;;;;;;5.68;61.07;101433.41;6416794;27;20190;-77
2021/03/23 02:46:00;;;;;;;1.20;1.20;;;;;;;5.58;62.28;101422.78;6417089;27;20219;-78
2021/03/23 02:49:05;;;;;;;1.33;1.30;;;;;;;5.43;61.91;101440.72;6416246;27;20215;-77
2021/03/23 02:52:12;;;;;;;3.77;1.40;;;;;;;5.40;61.86;101407.72;6417035;27;20187;-77
2021/03/23 02:55:16;;;;;;;1.10;1.10;;;;;;;5.64;61.50;101434.78;6415689;27;20383;-77
2021/03/23 02:58:19;;;;;;;2.03;1.37;;;;;;;5.36;62.69;101445.13;6416337;27;20183;-77
2021/03/23 03:01:23;;;;;;;6.63;1.43;;;;;;;5.56;62.54;101451.88;6411521;27;20201;-77
2021/03/23 03:04:27;;;;;;;2.93;1.40;;;;;;;5.71;61.73;101465.56;6411352;27;20237;-77
2021/03/23 03:07:31;;;;;;;6.77;1.53;;;;;;;5.81;61.40;101450.00;6416789;27;20206;-77
2021/03/23 03:10:35;;;;;;;4.10;1.30;;;;;;;5.66;62.02;101462.53;6416553;27;20457;-77
2021/03/23 03:13:43;;;;;;;1.47;1.30;;;;;;;5.70;62.35;101474.69;6415968;27;20186;-78
2021/03/23 03:16:46;;;;;;;1.30;1.20;;;;;;;5.60;62.67;101457.78;6416164;27;20187;-77
2021/03/23 03:19:50;;;;;;;1.53;1.20;;;;;;;5.73;61.90;101474.38;6416212;27;20182;-77
2021/03/23 03:22:54;;;;;;;3.10;1.30;;;;;;;5.82;61.21;101462.53;6415726;27;20184;-77
2021/03/23 03:25:58;;;;;;;4.27;1.30;;;;;;;5.79;61.13;101468.28;6415020;27;20534;-77
2021/03/23 03:29:01;;;;;;;2.80;1.20;;;;;;;5.74;61.36;101470.66;6417522;27;20181;-78
2021/03/23 03:32:08;;;;;;;1.43;1.43;;;;;;;5.63;61.07;101463.72;6397983;27;20255;-77
2021/03/23 03:35:13;;;;;;;2.17;1.20;;;;;;;5.26;62.92;101459.81;6408319;27;20202;-78
2021/03/23 03:38:22;;;;;;;2.93;1.30;;;;;;;5.45;62.50;101471.16;6415666;27;20182;-77
2021/03/23 03:41:26;;;;;;;2.50;1.40;;;;;;;5.56;62.05;101483.50;6414663;27;20197;-78
2021/03/23 03:44:30;;;;;;;1.20;1.10;;;;;;;5.51;62.46;101477.75;6415167;27;20269;-78
2021/03/23 03:47:33;;;;;;;1.10;1.10;;;;;;;5.50;62.64;101489.59;6414469;27;20189;-78
2021/03/23 03:50:37;;;;;;;7.73;1.30;;;;;;;5.45;62.03;101470.31;6415318;27;20182;-77
2021/03/23 03:53:45;;;;;;;1.60;1.50;;;;;;;5.68;62.30;101487.56;6414667;27;20311;-77
2021/03/23 03:56:48;;;;;;;3.10;1.57;;;;;;;5.77;61.83;101493.84;6415447;27;20183;-77
2021/03/23 03:59:52;;;;;;;2.20;1.13;;;;;;;5.75;62.17;101479.63;6414905;27;20217;-77
2021/03/23 04:02:56;;;;;;;4.60;1.47;;;;;;;5.74;62.21;101492.31;6414374;27;20239;-77
2021/03/23 04:06:00;;;;;;;6.53;1.30;;;;;;;5.48;62.69;101497.03;6414533;27;20239;-77
2021/03/23 04:09:05;;;;;;;2.23;1.43;;;;;;;5.56;62.63;101499.75;6415062;27;20189;-77
2021/03/23 04:12:10;;;;;;;2.30;1.30;;;;;;;5.54;62.54;101515.31;6415019;27;20184;-77
2021/03/23 04:15:25;;;;;;;3.07;1.10;;;;;;;5.53;62.34;101506.34;6415149;27;20188;-77
2021/03/23 04:18:29;;;;;;;5.43;1.37;;;;;;;5.53;61.85;101502.78;6414697;27;20220;-77
2021/03/23 04:21:32;;;;;;;2.10;1.30;;;;;;;5.46;62.35;101509.91;6414770;27;20258;-77
2021/03/23 04:24:37;;;;;;;5.17;1.37;;;;;;;5.41;62.67;101510.41;6414102;27;20217;-77
2021/03/23 04:27:40;;;;;;;2.87;1.30;;;;;;;5.48;62.40;101521.41;6414690;27;20188;-77
2021/03/23 04:30:43;;;;;;;1.40;1.30;;;;;;;5.41;62.78;101517.69;6414523;27;20214;-77
2021/03/23 04:33:47;;;;;;;1.90;1.13;;;;;;;5.47;62.57;101514.31;6414440;27;20190;-76
2021/03/23 04:36:50;;;;;;;1.60;1.30;;;;;;;5.48;61.92;101524.09;6395088;27;20198;-77
2021/03/23 04:39:56;;;;;;;1.43;1.33;;;;;;;5.45;62.73;101524.44;6413505;27;20248;-76
2021/03/23 04:42:59;;;;;;;1.37;1.30;;;;;;;5.46;62.21;101523.44;6414843;27;20183;-77
2021/03/23 04:46:03;;;;;;;2.10;1.23;;;;;;;5.38;62.10;101526.13;6414079;27;20246;-77
2021/03/23 04:49:07;;;;;;;2.00;1.20;;;;;;;5.30;62.43;101531.50;6415280;27;20189;-77
2021/03/23 04:52:11;;;;;;;2.77;1.40;;;;;;;5.33;63.50;101531.19;6414432;27;20182;-78
2021/03/23 04:55:16;;;;;;;4.77;1.43;;;;;;;5.18;63.01;101517.47;6395115;27;20273;-77
2021/03/23 04:58:21;;;;;;;1.40;1.30;;;;;;;5.26;63.75;101535.56;6413362;27;20188;-78
2021/03/23 05:01:25;;;;;;;4.13;1.50;;;;;;;5.18;63.72;101549.94;6416394;27;20205;-78
2021/03/23 05:04:30;;;;;;;7.80;1.43;;;;;;;5.16;63.33;101546.56;6414559;27;20402;-76
2021/03/23 05:07:35;;;;;;;4.23;1.40;;;;;;;5.15;63.76;101533.16;6414000;27;20194;-78
2021/03/23 05:10:39;;;;;;;5.33;1.40;;;;;;;5.14;63.24;101542.28;6415228;27;20220;-77
2021/03/23 05:13:42;;;;;;;4.53;1.17;;;;;;;5.05;64.15;101538.72;6413224;27;20429;-77
2021/03/23 05:16:46;;;;;;;2.03;1.47;;;;;;;5.03;64.18;101541.59;6414086;27;20183;-76
2021/03/23 05:19:49;;;;;;;1.90;1.33;;;;;;;5.03;64.14;101557.81;6413523;27;20218;-77
2021/03/23 05:22:52;;;;;;;2.67;1.33;;;;;;;5.05;64.52;101550.41;6415252;27;20247;-78
2021/03/23 05:25:56;;;;;;;8.13;2.03;;;;;;;5.03;64.46;101536.16;6418762;27;20211;-77
2021/03/23 05:29:09;;;;;;;10.73;1.90;;;;;;;4.97;63.79;101553.06;6418350;27;20183;-78
2021/03/23 05:32:12;;;;;;;8.00;1.80;;;;;;;4.90;64.46;101556.59;6418567;27;20219;-77
2021/03/23 05:35:19;;;;;;;13.57;2.00;;;;;;;4.85;64.84;101543.53;6418253;27;20191;-77
2021/03/23 05:38:29;;;;;;;4.30;2.20;;;;;;;4.83;64.88;101545.56;6418500;27;20476;-77
2021/03/23 05:41:41;;;;;;;14.50;2.10;;;;;;;4.91;64.20;101559.13;6417606;27;20494;-76
2021/03/23 05:45:04;;;;;;;4.23;1.70;;;;;;;4.89;64.62;101549.47;6401048;27;20232;-78
2021/03/23 05:48:19;;;;;;;10.93;2.00;;;;;;;4.88;64.58;101555.88;6419686;27;20213;-77
2021/03/23 05:51:27;;;;;;;8.07;1.90;;;;;;;4.90;65.04;101546.63;6419210;27;20189;-78
2021/03/23 05:54:37;;;;;;;8.50;1.87;;;;;;;4.91;65.09;101553.72;6419166;27;20187;-78
2021/03/23 05:57:44;;;;;;;8.53;2.07;;;;;;;4.81;65.02;101562.97;6418930;27;20183;-78
2021/03/23 06:00:57;;;;;;;11.20;1.97;;;;;;;4.75;64.47;101553.63;6419032;27;20205;-77
2021/03/23 06:04:08;;;;;;;7.10;2.10;;;;;;;4.93;65.47;101567.91;6419610;27;20258;-80
2021/03/23 06:07:14;;;;;;;14.37;2.90;;;;;;;4.83;64.81;101540.16;6419077;27;20212;-78
2021/03/23 06:10:21;;;;;;;10.87;2.17;;;;;;;5.06;64.81;101584.53;6420515;27;20186;-78
2021/03/23 06:13:31;;;;;;;6.13;1.80;;;;;;;5.08;65.31;101587.91;6416411;27;20185;-77
2021/03/23 06:16:42;;;;;;;6.53;2.07;;;;;;;5.18;64.44;101581.53;6417571;27;20187;-77
2021/03/23 06:19:53;;;;;;;7.77;2.10;;;;;;;5.14;64.72;101572.03;6416369;27;20349;-77
2021/03/23 06:23:20;;;;;;;5.13;1.77;;;;;;;4.83;63.87;101507.72;6416814;27;20502;-77
2021/03/23 06:26:34;;;;;;;15.03;1.90;;;;;;;5.24;64.44;101567.38;6396650;27;20564;-77
2021/03/23 06:30:17;;;;;;;10.53;2.20;;;;;;;5.18;65.28;101581.53;6417904;27;20220;-78
2021/03/23 06:33:29;;;;;;;8.57;2.20;;;;;;;5.24;64.08;101581.72;6388688;27;20198;-78
2021/03/23 06:36:32;;;;;;;12.17;2.40;;;;;;;5.29;64.66;101578.53;6418047;27;20522;-77
2021/03/23 06:39:36;;;;;;;18.17;2.30;;;;;;;5.41;63.72;101577.22;6415901;27;20507;-77
2021/03/23 06:42:41;;;;;;;12.63;2.00;;;;;;;5.49;63.78;101574.53;6416732;27;20189;-77
2021/03/23 06:45:45;;;;;;;15.50;2.37;;;;;;;5.49;63.67;101582.66;6415976;27;20207;-77
2021/03/23 06:49:05;;;;;;;16.63;2.67;;;;;;;5.61;63.66;101584.00;6416883;27;20187;-78
2021/03/23 06:52:21;;;;;;;11.13;2.17;;;;;;;5.72;63.87;101586.41;6416593;27;20188;-77
2021/03/23 06:55:25;;;;;;;11.53;2.33;;;;;;;5.72;62.82;101581.00;6416450;27;20187;-77
2021/03/23 06:58:34;;;;;;;18.80;2.50;;;;;;;5.75;62.84;101586.09;6415299;27;20186;-77
2021/03/23 07:01:39;;;;;;;29.43;2.60;;;;;;;6.01;62.44;101581.34;6410685;27;20199;-77
2021/03/23 07:04:43;;;;;;;7.93;2.07;;;;;;;6.13;61.67;101582.72;6415582;27;20253;-77
2021/03/23 07:07:54;;;;;;;18.93;2.50;;;;;;;6.14;61.83;101575.44;6418909;27;20229;-78
2021/03/23 07:11:09;;;;;;;18.07;2.20;;;;;;;6.23;61.67;101583.41;6415600;27;20494;-77
2021/03/23 07:14:23;;;;;;;9.33;2.00;;;;;;;6.25;60.65;101569.66;6417784;27;20500;-78
2021/03/23 07:17:30;;;;;;;25.40;2.50;;;;;;;6.41;60.86;101583.22;6418346;27;20204;-77
2021/03/23 07:20:44;;;;;;;12.53;2.10;;;;;;;6.41;60.44;101568.81;6422098;27;20183;-77
2021/03/23 07:23:48;;;;;;;18.80;2.30;;;;;;;6.58;60.32;101581.28;6420275;27;20218;-78
2021/03/23 07:27:01;;;;;;;14.90;3.00;;;;;;;6.56;60.03;101569.78;6415541;27;20208;-77
2021/03/23 07:30:29;;;;;;;25.93;3.17;;;;;;;6.65;59.99;101574.19;6398174;27;20206;-78
2021/03/23 07:33:51;;;;;;;23.53;3.60;;;;;;;6.74;59.71;101568.56;6412220;27;20206;-78
2021/03/23 07:37:00;;;;;;;16.07;3.80;;;;;;;6.78;59.34;101569.03;6416767;27;20191;-77
2021/03/23 07:40:06;;;;;;;25.20;3.07;;;;;;;6.83;59.54;101580.22;6397291;27;20565;-77
2021/03/23 07:43:32;;;;;;;23.33;2.83;;;;;;;6.80;59.67;101572.44;6414877;27;20366;-77
2021/03/23 07:46:43;;;;;;;15.47;2.50;;;;;;;6.92;59.33;101581.88;6414492;27;20240;-77
2021/03/23 07:49:55;;;;;;;8.43;1.93;;;;;;;7.01;59.14;101569.13;6415535;27;20243;-77
2021/03/23 07:53:08;;;;;;;5.07;1.70;;;;;;;6.97;59.19;101574.06;6415255;27;20185;-77
2021/03/23 07:56:30;;;;;;;16.80;2.43;;;;;;;6.89;59.54;101584.94;6416455;27;20191;-79
2021/03/23 07:59:51;;;;;;;8.50;1.53;;;;;;;6.97;59.37;101574.06;6417470;27;20184;-77
2021/03/23 08:03:32;;;;;;;28.80;1.83;;;;;;;7.00;59.01;101575.56;6418390;27;20548;-78
2021/03/23 08:06:56;;;;;;;3.57;1.87;;;;;;;7.19;58.96;101589.53;6413012;27;20216;-77
2021/03/23 08:10:29;;;;;;;17.13;1.80;;;;;;;7.08;58.95;101570.97;6415705;27;20188;-77
2021/03/23 08:13:50;;;;;;;7.03;2.00;;;;;;;7.28;58.73;101599.38;6415269;27;20205;-77
2021/03/23 08:17:12;;;;;;;8.63;2.03;;;;;;;7.23;58.64;101569.19;6415752;27;20196;-77
2021/03/23 08:20:32;;;;;;;8.20;1.67;;;;;;;7.38;58.74;101594.56;6417113;27;20218;-77
2021/03/23 08:24:00;;;;;;;8.30;1.73;;;;;;;7.52;58.16;101598.38;6414693;27;20216;-77
2021/03/23 08:27:23;;;;;;;13.43;2.00;;;;;;;7.67;58.05;101595.75;6416641;27;20212;-78
2021/03/23 08:30:37;;;;;;;13.37;2.17;;;;;;;7.73;57.88;101608.63;6415038;27;20181;-77
2021/03/23 08:33:53;;;;;;;24.03;2.90;;;;;;;7.79;57.25;101607.88;6415734;27;20188;-78
2021/03/23 08:37:36;;;;;;;17.60;1.80;;;;;;;7.93;57.23;101610.69;6416168;27;20188;-79
2021/03/23 08:40:46;;;;;;;6.70;1.70;;;;;;;8.00;57.00;101608.91;6396479;27;20197;-77
2021/03/23 08:43:49;;;;;;;13.97;1.70;;;;;;;8.12;56.64;101622.91;6417070;27;20284;-77
2021/03/23 08:46:54;;;;;;;3.03;1.73;;;;;;;8.21;56.82;101621.84;6417778;27;20226;-78
2021/03/23 08:50:04;;;;;;;9.02;2.05;;;;;;;8.26;56.63;101622.13;6419974;27;20490;-77
2021/03/23 08:53:39;;;;;;;8.95;1.80;;;;;;;8.27;56.50;101623.00;6420106;27;20181;-78
2021/03/23 08:56:59;;;;;;;5.67;1.40;;;;;;;8.19;56.16;101591.28;6416845;27;20188;-77
2021/03/23 09:00:02;;;;;;;11.60;1.63;;;;;;;8.26;56.24;101600.38;6422516;27;20233;-77
2021/03/23 09:03:38;;;;;;;16.03;1.80;;;;;;;8.41;56.34;101614.88;6421540;27;20224;-77
2021/03/23 09:06:48;;;;;;;6.00;1.73;;;;;;;8.41;56.19;101598.56;6420146;27;20564;-77
2021/03/23 09:09:54;;;;;;;12.60;1.63;;;;;;;8.54;55.86;101604.22;6420978;27;20291;-78
2021/03/23 09:12:59;;;;;;;19.47;1.53;;;;;;;8.52;55.90;101579.09;6420399;27;20463;-77
2021/03/23 09:16:04;;;;;;;10.03;1.40;;;;;;;8.63;55.73;101586.78;6420250;27;20230;-78
2021/03/23 09:19:09;;;;;;;10.27;1.90;;;;;;;8.56;54.91;101558.63;6420595;27;20212;-77
2021/03/23 09:22:41;;;;;;;6.60;1.73;;;;;;;8.75;55.02;101585.31;6419934;27;20421;-77
2021/03/23 09:25:50;;;;;;;10.70;2.28;;;;;;;8.67;54.93;101566.34;6419529;27;20209;-77
2021/03/23 09:28:54;;;;;;;3.88;1.38;;;;;;;9.04;54.06;101589.88;6419200;27;20340;-77
2021/03/23 09:32:00;;;;;;;12.70;1.38;;;;;;;9.07;53.93;101599.53;6418385;27;20463;-77
2021/03/23 09:35:22;;;;;;;5.93;1.38;;;;;;;9.12;53.46;101602.53;6418650;27;20181;-77
2021/03/23 09:38:33;;;;;;;5.20;1.50;;;;;;;9.20;53.34;101599.72;6416780;27;20495;-77
2021/03/23 09:41:37;;;;;;;2.70;1.13;;;;;;;9.23;53.18;101588.44;6418178;27;20193;-77
2021/03/23 09:44:46;;;;;;;7.75;1.20;;;;;;;9.46;52.10;101594.59;6417939;27;20212;-77
2021/03/23 09:48:07;;;;;;;16.08;1.30;;;;;;;9.46;52.31;101578.25;6418710;27;20212;-78
2021/03/23 09:51:41;;;;;;;14.70;1.77;;;;;;;9.42;52.74;101560.63;6363648;27;20228;-78
2021/03/23 09:54:52;;;;;;;1.70;1.15;;;;;;;9.63;51.57;101582.44;6411392;27;20197;-77
2021/03/23 09:57:57;;;;;;;4.30;1.02;;;;;;;9.84;51.02;101587.91;6417512;27;20223;-78
2021/03/23 10:01:14;;;;;;;6.80;1.30;;;;;;;9.83;50.12;101575.34;6417630;27;20180;-78
2021/03/23 10:04:25;;;;;;;5.35;1.30;;;;;;;9.82;50.60;101573.63;6412698;27;20244;-79
2021/03/23 10:07:33;;;;;;;12.90;1.48;;;;;;;9.88;50.63;101572.88;6417590;27;20378;-78
2021/03/23 10:10:37;;;;;;;1.88;0.90;;;;;;;9.97;50.16;101576.28;6419039;27;20188;-78
2021/03/23 10:13:45;;;;;;;5.03;0.95;;;;;;;10.01;49.14;101556.59;6418792;27;20187;-78
2021/03/23 10:16:49;;;;;;;10.05;1.38;;;;;;;10.18;48.92;101561.84;6420578;27;20185;-78
2021/03/23 10:19:55;;;;;;;6.03;1.20;;;;;;;10.26;49.42;101564.41;6421680;27;20226;-78
2021/03/23 10:22:58;;;;;;;4.80;1.15;;;;;;;10.36;49.75;101578.56;6419311;27;20185;-78
2021/03/23 10:26:05;;;;;;;6.57;1.20;;;;;;;10.38;49.19;101585.50;6399437;27;20216;-78
2021/03/23 10:29:18;;;;;;;1.48;1.17;;;;;;;10.50;48.75;101572.19;6419418;27;20260;-78
2021/03/23 10:32:37;;;;;;;1.45;0.80;;;;;;;10.70;47.09;101567.69;6417993;27;20260;-78
2021/03/23 10:35:52;;;;;;;1.00;1.00;;;;;;;10.61;47.38;101547.03;6419637;27;20185;-78
2021/03/23 10:38:56;;;;;;;1.83;1.00;;;;;;;10.80;46.99;101568.19;6419973;27;20222;-78
2021/03/23 10:42:22;;;;;;;3.25;1.05;;;;;;;11.03;46.39;101584.25;6419586;27;20182;-79
2021/03/23 10:45:30;;;;;;;11.52;1.02;;;;;;;11.03;46.30;101574.19;6419507;27;20184;-78
2021/03/23 10:48:38;;;;;;;4.78;1.70;;;;;;;11.08;46.34;101588.06;6420678;27;20181;-79
2021/03/23 10:51:45;;;;;;;7.15;1.40;;;;;;;11.15;46.20;101578.03;6420429;27;20248;-78
2021/03/23 10:54:48;;;;;;;5.82;1.05;;;;;;;11.17;46.40;101575.91;6419386;27;20220;-78
2021/03/23 10:58:12;;;;;;;5.65;1.10;;;;;;;11.25;46.55;101572.16;6417326;27;20239;-79
2021/03/23 11:01:17;;;;;;;4.82;0.98;;;;;;;11.32;46.20;101557.50;6418554;27;20374;-80
2021/03/23 11:04:23;;;;;;;7.28;1.05;;;;;;;11.39;46.67;101581.28;6420079;27;20231;-78
2021/03/23 11:07:29;;;;;;;5.93;1.20;;;;;;;11.28;46.89;101567.16;6417932;27;20515;-77
2021/03/23 11:10:34;;;;;;;3.40;1.20;;;;;;;11.38;46.82;101571.38;6417467;27;20405;-78
2021/03/23 11:13:39;;;;;;;0.90;0.80;;;;;;;11.50;46.19;101569.75;6416336;27;20498;-78
2021/03/23 11:16:44;;;;;;;2.72;1.20;;;;;;;11.44;46.37;101565.97;6416931;27;20223;-78
2021/03/23 11:19:52;;;;;;;7.13;1.05;;;;;;;11.60;45.87;101571.06;6416076;27;20185;-79
2021/03/23 11:23:08;;;;;;;2.20;1.52;;;;;;;11.15;46.35;101490.63;6416396;27;20189;-77
2021/03/23 11:26:44;;;;;;;;;;;;;;;;;;;;;
2021/03/23 11:30:10;;;;;;;4.03;1.10;;;;;;;11.76;46.10;101572.59;6417347;27;20181;-78
2021/03/23 11:33:22;;;;;;;2.00;1.20;;;;;;;11.71;45.74;101545.06;6415897;27;20264;-77
2021/03/23 11:36:29;;;;;;;6.72;1.02;;;;;;;11.60;45.11;101532.78;6416857;27;20209;-79
2021/03/23 11:39:33;;;;;;;2.83;1.30;;;;;;;11.44;46.00;101489.44;6417591;27;20187;-78
2021/03/23 11:42:49;;;;;;;2.05;1.02;;;;;;;11.93;45.45;101571.16;6416409;27;20185;-78
2021/03/23 11:45:53;;;;;;;2.85;1.30;;;;;;;11.99;45.38;101570.34;6413884;27;20181;-78
2021/03/23 11:49:05;;;;;;;12.10;1.42;;;;;;;12.02;45.45;101569.88;6415285;27;20377;-78
2021/03/23 11:52:15;;;;;;;1.08;1.00;;;;;;;12.08;45.09;101580.00;6417857;27;20222;-78
2021/03/23 11:55:21;;;;;;;2.03;1.17;;;;;;;12.10;45.20;101572.44;6416055;27;20181;-78
2021/03/23 11:58:25;;;;;;;3.92;0.88;;;;;;;12.14;45.14;101573.72;6418725;27;20247;-78
2021/03/23 12:01:32;;;;;;;3.53;1.00;;;;;;;12.21;44.81;101563.59;6413223;27;20276;-78
2021/03/23 12:04:37;;;;;;;2.67;1.30;;;;;;;12.18;44.95;101547.59;6413422;27;20287;-78
2021/03/23 12:07:53;;;;;;;4.97;1.23;;;;;;;12.32;44.77;101554.78;6414162;27;20381;-77
2021/03/23 12:11:05;;;;;;;8.77;1.20;;;;;;;12.32;44.92;101549.31;6415267;27;20181;-78
2021/03/23 12:14:23;;;;;;;9.13;1.50;;;;;;;12.23;44.87;101533.28;6414883;27;20498;-78
2021/03/23 12:17:28;;;;;;;14.60;2.03;;;;;;;12.36;44.92;101555.19;6416404;27;20211;-78
2021/03/23 12:20:35;;;;;;;4.90;1.02;;;;;;;12.31;45.37;101564.03;6416798;27;20183;-79
2021/03/23 12:23:41;;;;;;;3.55;1.10;;;;;;;12.30;45.06;101556.03;6415408;27;20181;-79
2021/03/23 12:26:44;;;;;;;2.72;1.13;;;;;;;12.35;44.69;101559.81;6416564;27;20223;-78
2021/03/23 12:29:48;;;;;;;8.15;1.27;;;;;;;12.38;44.64;101545.69;6416557;27;20181;-78
2021/03/23 12:32:53;;;;;;;2.05;1.25;;;;;;;12.23;44.80;101539.59;6415945;27;20248;-78
2021/03/23 12:35:57;;;;;;;9.65;1.65;;;;;;;12.47;43.80;101552.66;6416546;27;20260;-78
2021/03/23 12:39:03;;;;;;;3.83;1.25;;;;;;;12.52;43.78;101544.66;6416608;27;20180;-78
2021/03/23 12:42:07;;;;;;;2.13;0.95;;;;;;;12.57;43.76;101542.13;6416007;27;20265;-78
2021/03/23 12:45:22;;;;;;;1.17;1.02;;;;;;;12.56;43.53;101550.53;6416941;27;20202;-78
2021/03/23 12:48:26;;;;;;;2.67;0.90;;;;;;;12.56;43.50;101545.91;6417153;27;20185;-78
2021/03/23 12:51:37;;;;;;;3.03;1.10;;;;;;;12.56;44.11;101545.91;6417281;27;20225;-78
2021/03/23 12:54:44;;;;;;;18.00;1.10;;;;;;;12.60;43.97;101540.00;6417219;27;20181;-78
2021/03/23 12:57:47;;;;;;;11.30;1.45;;;;;;;12.37;44.43;101519.41;6416385;27;20222;-78
2021/03/23 13:00:52;;;;;;;6.90;1.00;;;;;;;12.61;43.88;101533.47;6416545;27;20225;-78
2021/03/23 13:04:10;;;;;;;0.93;0.90;;;;;;;12.68;43.86;101531.56;6416782;27;20224;-79
2021/03/23 13:07:19;;;;;;;3.38;0.88;;;;;;;12.70;43.66;101523.97;6417324;27;20256;-78
2021/03/23 13:10:29;;;;;;;7.45;1.27;;;;;;;12.72;43.45;101513.63;6417566;27;20218;-78
2021/03/23 13:13:46;;;;;;;6.25;1.00;;;;;;;12.81;42.50;101509.63;6417115;27;20181;-78
2021/03/23 13:16:50;;;;;;;7.45;1.50;;;;;;;12.89;43.04;101534.03;6417769;27;20216;-78
2021/03/23 13:19:57;;;;;;;5.20;1.10;;;;;;;12.87;42.79;101508.75;6417992;27;20218;-78
2021/03/23 13:23:02;;;;;;;4.80;2.85;;;;;;;12.92;42.92;101514.41;6417570;27;20202;-78
2021/03/23 13:26:08;;;;;;;2.40;1.35;;;;;;;12.98;42.76;101510.81;6417428;27;20188;-79
2021/03/23 13:29:11;;;;;;;4.90;1.10;;;;;;;12.97;43.42;101509.13;6416928;27;20181;-78
2021/03/23 13:32:15;;;;;;;1.65;1.20;;;;;;;12.89;42.74;101506.66;6414944;27;20447;-77
2021/03/23 13:35:20;;;;;;;3.08;1.00;;;;;;;12.99;42.67;101507.84;6413198;27;20476;-77
2021/03/23 13:38:23;;;;;;;6.30;1.20;;;;;;;12.94;43.23;101498.63;6415746;27;20215;-77
2021/03/23 13:41:27;;;;;;;3.15;1.40;;;;;;;13.00;43.17;101511.44;6416468;27;20181;-80
2021/03/23 13:44:40;;;;;;;5.28;1.15;;;;;;;12.92;42.71;101497.97;6419364;27;20212;-79
2021/03/23 13:47:45;;;;;;;1.23;1.17;;;;;;;13.03;43.20;101508.28;6404542;27;20208;-77
2021/03/23 13:50:49;;;;;;;7.25;1.50;;;;;;;13.11;42.59;101499.84;6424304;27;20212;-77
2021/03/23 13:54:00;;;;;;;2.42;1.63;;;;;;;13.08;42.88;101489.31;6422416;27;20181;-79
2021/03/23 13:57:04;;;;;;;6.85;1.30;;;;;;;13.24;42.21;101494.31;6421591;27;20235;-78
2021/03/23 14:00:09;;;;;;;9.57;1.70;;;;;;;13.49;42.11;101492.47;6422449;27;20222;-79
2021/03/23 14:03:27;;;;;;;12.63;2.05;;;;;;;14.21;40.39;101463.63;6423495;27;20224;-78
2021/03/23 14:06:31;;;;;;;11.40;1.27;;;;;;;14.25;40.32;101492.31;6421916;27;20248;-79
2021/03/23 14:09:40;;;;;;;0.98;0.98;;;;;;;13.80;41.24;101478.75;6422638;27;20187;-78
2021/03/23 14:12:46;;;;;;;5.85;1.20;;;;;;;13.78;41.47;101464.44;6421097;27;20181;-78
2021/03/23 14:15:49;;;;;;;5.57;1.20;;;;;;;13.62;41.81;101454.00;6421450;27;20180;-78
2021/03/23 14:18:53;;;;;;;7.97;2.17;;;;;;;13.63;42.22;101476.78;6421703;27;20264;-78
2021/03/23 14:21:57;;;;;;;6.13;1.60;;;;;;;13.62;42.10;101475.94;6420917;27;20181;-77
2021/03/23 14:25:14;;;;;;;10.80;1.20;;;;;;;13.56;41.93;101474.06;6419797;27;20196;-78
2021/03/23 14:28:23;;;;;;;4.65;1.20;;;;;;;13.49;42.09;101470.53;6419377;27;20216;-77
2021/03/23 14:31:28;;;;;;;2.67;0.98;;;;;;;13.45;42.02;101463.84;6417988;27;20187;-78
2021/03/23 14:34:31;;;;;;;4.97;1.00;;;;;;;13.51;41.94;101478.53;6420051;27;20476;-78
2021/03/23 14:37:35;;;;;;;4.82;1.00;;;;;;;13.51;42.24;101479.38;6420172;27;20267;-78
2021/03/23 14:40:39;;;;;;;7.95;1.05;;;;;;;13.39;42.48;101475.66;6419269;27;20461;-77
2021/03/23 14:43:55;;;;;;;4.10;1.20;;;;;;;13.40;42.52;101469.13;6419194;27;20181;-78
2021/03/23 14:46:59;;;;;;;5.35;1.10;;;;;;;13.41;42.21;101468.06;6420109;27;20238;-80